sensor_id;sensor_type;location;lat;lon;timestamp;P1;durP1;ratioP1;P2;durP2;ratioP2
7525;SDS011;3804;50.860;6.208;2023-02-15T02:52:46;40.40;;;22.43;;
7525;SDS011;3804;50.860;6.208;2023-02-15T03:00:23;41.47;;;22.13;;
7525;SDS011;3804;50.860;6.208;2023-02-15T03:02:52;36.90;;;21.87;;
7525;SDS011;3804;50.860;6.208;2023-02-15T03:05:21;39.00;;;22.57;;
7525;SDS011;3804;50.860;6.208;2023-02-15T03:07:50;39.00;;;22.30;;
7525;SDS011;3804;50.860;6.208;2023-02-15T03:10:19;38.87;;;23.50;;
7525;SDS011;3804;50.860;6.208;2023-02-15T03:12:49;37.33;;;21.87;;
7525;SDS011;3804;50.860;6.208;2023-02-15T03:15:19;39.07;;;21.57;;
7525;SDS011;3804;50.860;6.208;2023-02-15T03:17:48;38.53;;;20.93;;
7525;SDS011;3804;50.860;6.208;2023-02-15T03:20:18;38.07;;;21.07;;
7525;SDS011;3804;50.860;6.208;2023-02-15T03:23:00;41.37;;;21.57;;
7525;SDS011;3804;50.860;6.208;2023-02-15T03:25:42;34.70;;;20.37;;
7525;SDS011;3804;50.860;6.208;2023-02-15T03:28:15;39.57;;;21.20;;
7525;SDS011;3804;50.860;6.208;2023-02-15T03:30:45;36.07;;;19.80;;
7525;SDS011;3804;50.860;6.208;2023-02-15T03:33:12;38.17;;;21.43;;
7525;SDS011;3804;50.860;6.208;2023-02-15T03:35:44;35.70;;;20.53;;
7525;SDS011;3804;50.860;6.208;2023-02-15T03:38:12;32.73;;;19.17;;
7525;SDS011;3804;50.860;6.208;2023-02-15T03:40:41;34.20;;;18.83;;
7525;SDS011;3804;50.860;6.208;2023-02-15T03:43:33;34.23;;;20.17;;
7525;SDS011;3804;50.860;6.208;2023-02-15T03:46:05;32.37;;;18.67;;
7525;SDS011;3804;50.860;6.208;2023-02-15T03:48:39;35.67;;;19.53;;
7525;SDS011;3804;50.860;6.208;2023-02-15T03:51:07;31.90;;;18.20;;
7525;SDS011;3804;50.860;6.208;2023-02-15T03:53:53;28.93;;;17.63;;
7525;SDS011;3804;50.860;6.208;2023-02-15T03:56:20;36.20;;;20.73;;
7525;SDS011;3804;50.860;6.208;2023-02-15T03:58:47;31.43;;;18.23;;
7525;SDS011;3804;50.860;6.208;2023-02-15T04:04:33;32.80;;;18.03;;
7525;SDS011;3804;50.860;6.208;2023-02-15T04:07:01;32.53;;;17.87;;
7525;SDS011;3804;50.860;6.208;2023-02-15T04:09:27;33.43;;;18.53;;
7525;SDS011;3804;50.860;6.208;2023-02-15T04:12:13;33.67;;;18.97;;
7525;SDS011;3804;50.860;6.208;2023-02-15T04:14:39;35.10;;;18.90;;
7525;SDS011;3804;50.860;6.208;2023-02-15T04:17:24;34.37;;;18.00;;
7525;SDS011;3804;50.860;6.208;2023-02-15T04:19:51;35.07;;;19.20;;
7525;SDS011;3804;50.860;6.208;2023-02-15T04:22:36;32.00;;;19.57;;
7525;SDS011;3804;50.860;6.208;2023-02-15T04:25:22;33.03;;;18.27;;
7525;SDS011;3804;50.860;6.208;2023-02-15T04:27:50;32.47;;;18.00;;
7525;SDS011;3804;50.860;6.208;2023-02-15T04:30:17;31.63;;;18.53;;
7525;SDS011;3804;50.860;6.208;2023-02-15T04:32:45;38.30;;;19.53;;
7525;SDS011;3804;50.860;6.208;2023-02-15T04:35:12;35.63;;;18.77;;
7525;SDS011;3804;50.860;6.208;2023-02-15T04:37:39;39.93;;;19.47;;
7525;SDS011;3804;50.860;6.208;2023-02-15T04:40:06;37.90;;;21.00;;
7525;SDS011;3804;50.860;6.208;2023-02-15T04:42:33;41.73;;;19.93;;
7525;SDS011;3804;50.860;6.208;2023-02-15T04:44:59;41.23;;;20.90;;
7525;SDS011;3804;50.860;6.208;2023-02-15T04:47:26;35.10;;;20.70;;
7525;SDS011;3804;50.860;6.208;2023-02-15T04:49:53;37.63;;;19.90;;
7525;SDS011;3804;50.860;6.208;2023-02-15T04:52:22;33.57;;;20.00;;
7525;SDS011;3804;50.860;6.208;2023-02-15T04:54:49;39.67;;;20.13;;
7525;SDS011;3804;50.860;6.208;2023-02-15T04:57:15;32.43;;;18.37;;
7525;SDS011;3804;50.860;6.208;2023-02-15T04:59:42;33.27;;;18.47;;
7525;SDS011;3804;50.860;6.208;2023-02-15T05:02:08;32.40;;;18.23;;
7525;SDS011;3804;50.860;6.208;2023-02-15T05:04:35;34.77;;;18.53;;
7525;SDS011;3804;50.860;6.208;2023-02-15T05:07:02;31.63;;;17.87;;
7525;SDS011;3804;50.860;6.208;2023-02-15T05:09:28;30.40;;;17.70;;
7525;SDS011;3804;50.860;6.208;2023-02-15T05:11:55;31.27;;;17.20;;
7525;SDS011;3804;50.860;6.208;2023-02-15T05:14:22;32.83;;;17.30;;
7525;SDS011;3804;50.860;6.208;2023-02-15T05:16:49;32.93;;;18.13;;
7525;SDS011;3804;50.860;6.208;2023-02-15T05:19:16;26.60;;;16.67;;
7525;SDS011;3804;50.860;6.208;2023-02-15T05:21:42;28.13;;;17.33;;
7525;SDS011;3804;50.860;6.208;2023-02-15T05:24:09;30.10;;;16.40;;
7525;SDS011;3804;50.860;6.208;2023-02-15T05:26:54;26.37;;;15.67;;
7525;SDS011;3804;50.860;6.208;2023-02-15T05:29:40;27.07;;;15.67;;
7525;SDS011;3804;50.860;6.208;2023-02-15T05:32:07;25.70;;;14.23;;
7525;SDS011;3804;50.860;6.208;2023-02-15T05:34:34;24.00;;;13.97;;
7525;SDS011;3804;50.860;6.208;2023-02-15T05:37:01;28.53;;;15.43;;
7525;SDS011;3804;50.860;6.208;2023-02-15T05:39:27;26.40;;;14.80;;
7525;SDS011;3804;50.860;6.208;2023-02-15T05:41:54;24.97;;;14.57;;
7525;SDS011;3804;50.860;6.208;2023-02-15T05:44:24;24.20;;;14.53;;
7525;SDS011;3804;50.860;6.208;2023-02-15T05:46:51;25.13;;;15.50;;
7525;SDS011;3804;50.860;6.208;2023-02-15T05:49:17;22.57;;;13.90;;
7525;SDS011;3804;50.860;6.208;2023-02-15T05:51:44;25.30;;;14.43;;
7525;SDS011;3804;50.860;6.208;2023-02-15T05:54:11;24.50;;;14.03;;
7525;SDS011;3804;50.860;6.208;2023-02-15T05:56:37;22.43;;;12.63;;
7525;SDS011;3804;50.860;6.208;2023-02-15T05:59:04;23.77;;;12.97;;
7525;SDS011;3804;50.860;6.208;2023-02-15T06:01:31;22.43;;;13.07;;
7525;SDS011;3804;50.860;6.208;2023-02-15T06:03:58;21.17;;;12.60;;
7525;SDS011;3804;50.860;6.208;2023-02-15T06:06:25;24.23;;;13.80;;
7525;SDS011;3804;50.860;6.208;2023-02-15T06:08:51;22.97;;;12.40;;
7525;SDS011;3804;50.860;6.208;2023-02-15T06:11:18;21.97;;;13.03;;
7525;SDS011;3804;50.860;6.208;2023-02-15T06:13:45;22.50;;;12.47;;
7525;SDS011;3804;50.860;6.208;2023-02-15T06:16:12;20.17;;;11.90;;
7525;SDS011;3804;50.860;6.208;2023-02-15T06:18:38;20.57;;;11.83;;
7525;SDS011;3804;50.860;6.208;2023-02-15T06:21:05;19.43;;;11.63;;
7525;SDS011;3804;50.860;6.208;2023-02-15T06:23:32;20.87;;;12.23;;
7525;SDS011;3804;50.860;6.208;2023-02-15T06:25:58;20.97;;;11.93;;
7525;SDS011;3804;50.860;6.208;2023-02-15T06:28:25;23.03;;;12.90;;
7525;SDS011;3804;50.860;6.208;2023-02-15T06:30:52;25.93;;;13.57;;
7525;SDS011;3804;50.860;6.208;2023-02-15T06:33:19;21.87;;;13.33;;
7525;SDS011;3804;50.860;6.208;2023-02-15T06:35:45;20.93;;;12.10;;
7525;SDS011;3804;50.860;6.208;2023-02-15T06:38:13;19.63;;;12.33;;
7525;SDS011;3804;50.860;6.208;2023-02-15T06:40:39;16.60;;;11.27;;
7525;SDS011;3804;50.860;6.208;2023-02-15T06:43:06;27.87;;;15.73;;
7525;SDS011;3804;50.860;6.208;2023-02-15T06:45:33;22.60;;;13.03;;
7525;SDS011;3804;50.860;6.208;2023-02-15T06:48:00;23.17;;;12.30;;
7525;SDS011;3804;50.860;6.208;2023-02-15T06:50:26;23.43;;;12.60;;
7525;SDS011;3804;50.860;6.208;2023-02-15T06:52:57;18.80;;;11.70;;
7525;SDS011;3804;50.860;6.208;2023-02-15T06:55:24;18.77;;;11.07;;
7525;SDS011;3804;50.860;6.208;2023-02-15T06:57:50;25.73;;;12.67;;
7525;SDS011;3804;50.860;6.208;2023-02-15T07:00:17;22.27;;;12.37;;
7525;SDS011;3804;50.860;6.208;2023-02-15T07:02:45;19.43;;;11.50;;
7525;SDS011;3804;50.860;6.208;2023-02-15T07:05:11;21.43;;;11.73;;
7525;SDS011;3804;50.860;6.208;2023-02-15T07:07:38;18.57;;;10.50;;
7525;SDS011;3804;50.860;6.208;2023-02-15T07:10:05;20.57;;;12.33;;
7525;SDS011;3804;50.860;6.208;2023-02-15T07:12:33;24.90;;;12.50;;
7525;SDS011;3804;50.860;6.208;2023-02-15T07:15:10;20.07;;;11.93;;
7525;SDS011;3804;50.860;6.208;2023-02-15T07:17:37;21.50;;;12.43;;
7525;SDS011;3804;50.860;6.208;2023-02-15T07:20:05;21.10;;;12.57;;
7525;SDS011;3804;50.860;6.208;2023-02-15T07:22:32;20.70;;;11.63;;
7525;SDS011;3804;50.860;6.208;2023-02-15T07:25:00;18.33;;;11.33;;
7525;SDS011;3804;50.860;6.208;2023-02-15T07:27:27;18.80;;;12.60;;
7525;SDS011;3804;50.860;6.208;2023-02-15T07:29:54;23.87;;;12.57;;
7525;SDS011;3804;50.860;6.208;2023-02-15T07:32:20;23.10;;;12.50;;
7525;SDS011;3804;50.860;6.208;2023-02-15T07:34:47;22.70;;;12.23;;
7525;SDS011;3804;50.860;6.208;2023-02-15T07:37:14;19.33;;;11.17;;
7525;SDS011;3804;50.860;6.208;2023-02-15T07:39:40;19.17;;;11.87;;
7525;SDS011;3804;50.860;6.208;2023-02-15T07:42:07;22.43;;;13.00;;
7525;SDS011;3804;50.860;6.208;2023-02-15T07:44:35;23.50;;;12.43;;
7525;SDS011;3804;50.860;6.208;2023-02-15T07:47:02;18.50;;;11.00;;
7525;SDS011;3804;50.860;6.208;2023-02-15T07:49:28;20.10;;;11.00;;
7525;SDS011;3804;50.860;6.208;2023-02-15T07:51:55;17.67;;;10.73;;
7525;SDS011;3804;50.860;6.208;2023-02-15T07:54:22;20.47;;;11.73;;
7525;SDS011;3804;50.860;6.208;2023-02-15T07:56:49;18.10;;;11.33;;
7525;SDS011;3804;50.860;6.208;2023-02-15T07:59:15;18.73;;;11.10;;
7525;SDS011;3804;50.860;6.208;2023-02-15T08:01:42;23.90;;;11.20;;
7525;SDS011;3804;50.860;6.208;2023-02-15T08:04:09;18.33;;;10.63;;
7525;SDS011;3804;50.860;6.208;2023-02-15T08:06:37;23.90;;;11.30;;
7525;SDS011;3804;50.860;6.208;2023-02-15T08:09:04;17.87;;;10.67;;
7525;SDS011;3804;50.860;6.208;2023-02-15T08:11:33;23.13;;;11.30;;
7525;SDS011;3804;50.860;6.208;2023-02-15T08:19:06;21.03;;;11.20;;
7525;SDS011;3804;50.860;6.208;2023-02-15T08:21:34;20.37;;;10.40;;
7525;SDS011;3804;50.860;6.208;2023-02-15T08:24:01;22.97;;;11.43;;
7525;SDS011;3804;50.860;6.208;2023-02-15T08:26:28;20.20;;;10.13;;
7525;SDS011;3804;50.860;6.208;2023-02-15T08:28:56;19.50;;;10.10;;
7525;SDS011;3804;50.860;6.208;2023-02-15T08:31:22;23.63;;;11.60;;
7525;SDS011;3804;50.860;6.208;2023-02-15T08:33:50;18.67;;;10.80;;
7525;SDS011;3804;50.860;6.208;2023-02-15T08:36:19;21.47;;;10.70;;
7525;SDS011;3804;50.860;6.208;2023-02-15T08:38:46;18.53;;;9.47;;
7525;SDS011;3804;50.860;6.208;2023-02-15T08:43:39;15.47;;;10.47;;
7525;SDS011;3804;50.860;6.208;2023-02-15T08:46:06;17.60;;;11.43;;
7525;SDS011;3804;50.860;6.208;2023-02-15T08:48:34;16.40;;;10.33;;
7525;SDS011;3804;50.860;6.208;2023-02-15T08:51:04;18.03;;;10.77;;
7525;SDS011;3804;50.860;6.208;2023-02-15T08:53:31;19.57;;;10.10;;
7525;SDS011;3804;50.860;6.208;2023-02-15T08:55:58;20.27;;;9.93;;
7525;SDS011;3804;50.860;6.208;2023-02-15T08:58:25;17.87;;;9.77;;
7525;SDS011;3804;50.860;6.208;2023-02-15T09:00:52;23.30;;;10.43;;
7525;SDS011;3804;50.860;6.208;2023-02-15T09:03:18;20.53;;;10.17;;
7525;SDS011;3804;50.860;6.208;2023-02-15T09:05:45;18.57;;;9.67;;
7525;SDS011;3804;50.860;6.208;2023-02-15T09:08:12;18.73;;;10.23;;
7525;SDS011;3804;50.860;6.208;2023-02-15T09:10:38;21.70;;;10.23;;
7525;SDS011;3804;50.860;6.208;2023-02-15T09:13:05;18.47;;;10.80;;
7525;SDS011;3804;50.860;6.208;2023-02-15T09:15:32;21.00;;;11.50;;
7525;SDS011;3804;50.860;6.208;2023-02-15T09:17:59;25.70;;;12.70;;
7525;SDS011;3804;50.860;6.208;2023-02-15T09:20:29;21.20;;;12.37;;
7525;SDS011;3804;50.860;6.208;2023-02-15T09:22:55;24.27;;;13.27;;
7525;SDS011;3804;50.860;6.208;2023-02-15T09:25:25;29.50;;;14.17;;
7525;SDS011;3804;50.860;6.208;2023-02-15T09:27:52;28.67;;;12.60;;
7525;SDS011;3804;50.860;6.208;2023-02-15T09:30:18;25.70;;;13.87;;
7525;SDS011;3804;50.860;6.208;2023-02-15T09:32:45;29.87;;;13.83;;
7525;SDS011;3804;50.860;6.208;2023-02-15T09:35:13;29.93;;;13.93;;
7525;SDS011;3804;50.860;6.208;2023-02-15T09:37:40;37.50;;;14.77;;
7525;SDS011;3804;50.860;6.208;2023-02-15T09:40:06;29.43;;;14.00;;
7525;SDS011;3804;50.860;6.208;2023-02-15T09:42:42;30.60;;;14.17;;
7525;SDS011;3804;50.860;6.208;2023-02-15T09:45:31;32.00;;;14.53;;
7525;SDS011;3804;50.860;6.208;2023-02-15T09:51:02;28.10;;;13.93;;
7525;SDS011;3804;50.860;6.208;2023-02-15T09:53:36;25.07;;;14.77;;
7525;SDS011;3804;50.860;6.208;2023-02-15T09:56:14;29.30;;;16.53;;
7525;SDS011;3804;50.860;6.208;2023-02-15T10:06:30;30.03;;;17.10;;
7525;SDS011;3804;50.860;6.208;2023-02-15T10:12:18;28.77;;;16.50;;
7525;SDS011;3804;50.860;6.208;2023-02-15T10:17:47;31.43;;;18.13;;
7525;SDS011;3804;50.860;6.208;2023-02-15T10:20:14;30.57;;;16.87;;
7525;SDS011;3804;50.860;6.208;2023-02-15T10:27:44;26.33;;;16.43;;
7525;SDS011;3804;50.860;6.208;2023-02-15T10:30:13;28.53;;;17.17;;
7525;SDS011;3804;50.860;6.208;2023-02-15T10:32:44;24.63;;;15.90;;
7525;SDS011;3804;50.860;6.208;2023-02-15T10:57:56;22.87;;;14.00;;
7525;SDS011;3804;50.860;6.208;2023-02-15T11:00:29;27.63;;;14.43;;
7525;SDS011;3804;50.860;6.208;2023-02-15T11:05:34;22.93;;;13.80;;
7525;SDS011;3804;50.860;6.208;2023-02-15T11:08:02;22.97;;;14.60;;
7525;SDS011;3804;50.860;6.208;2023-02-15T11:13:18;25.30;;;14.67;;
7525;SDS011;3804;50.860;6.208;2023-02-15T11:23:23;22.53;;;13.50;;
7525;SDS011;3804;50.860;6.208;2023-02-15T11:26:00;20.20;;;13.47;;
7525;SDS011;3804;50.860;6.208;2023-02-15T11:28:40;24.97;;;14.50;;
7525;SDS011;3804;50.860;6.208;2023-02-15T11:31:11;22.53;;;13.87;;
7525;SDS011;3804;50.860;6.208;2023-02-15T11:33:40;25.97;;;15.57;;
7525;SDS011;3804;50.860;6.208;2023-02-15T11:36:18;20.03;;;12.97;;
7525;SDS011;3804;50.860;6.208;2023-02-15T11:38:46;19.70;;;13.53;;
7525;SDS011;3804;50.860;6.208;2023-02-15T11:41:17;22.80;;;14.13;;
7525;SDS011;3804;50.860;6.208;2023-02-15T11:43:59;20.97;;;13.00;;
7525;SDS011;3804;50.860;6.208;2023-02-15T11:46:28;21.53;;;13.70;;
7525;SDS011;3804;50.860;6.208;2023-02-15T11:48:55;18.17;;;12.70;;
7525;SDS011;3804;50.860;6.208;2023-02-15T11:51:22;21.90;;;14.47;;
7525;SDS011;3804;50.860;6.208;2023-02-15T11:53:50;21.73;;;14.63;;
7525;SDS011;3804;50.860;6.208;2023-02-15T11:56:21;22.27;;;14.10;;
7525;SDS011;3804;50.860;6.208;2023-02-15T11:58:50;18.57;;;13.10;;
7525;SDS011;3804;50.860;6.208;2023-02-15T12:03:50;23.97;;;12.70;;
7525;SDS011;3804;50.860;6.208;2023-02-15T12:06:25;22.50;;;13.70;;
7525;SDS011;3804;50.860;6.208;2023-02-15T12:09:00;19.70;;;13.67;;
7525;SDS011;3804;50.860;6.208;2023-02-15T12:11:37;21.77;;;12.53;;
7525;SDS011;3804;50.860;6.208;2023-02-15T12:14:08;20.87;;;13.47;;
7525;SDS011;3804;50.860;6.208;2023-02-15T12:16:45;20.67;;;12.40;;
7525;SDS011;3804;50.860;6.208;2023-02-15T12:19:59;18.23;;;11.90;;
7525;SDS011;3804;50.860;6.208;2023-02-15T12:22:01;26.90;;;12.43;;
7525;SDS011;3804;50.860;6.208;2023-02-15T12:24:32;19.37;;;11.63;;
7525;SDS011;3804;50.860;6.208;2023-02-15T12:27:01;17.63;;;11.77;;
7525;SDS011;3804;50.860;6.208;2023-02-15T12:29:50;17.97;;;11.53;;
7525;SDS011;3804;50.860;6.208;2023-02-15T12:32:19;19.40;;;12.27;;
7525;SDS011;3804;50.860;6.208;2023-02-15T12:34:48;20.30;;;12.43;;
7525;SDS011;3804;50.860;6.208;2023-02-15T12:37:17;19.83;;;11.67;;
7525;SDS011;3804;50.860;6.208;2023-02-15T12:39:56;19.53;;;12.10;;
7525;SDS011;3804;50.860;6.208;2023-02-15T12:42:23;22.20;;;12.73;;
7525;SDS011;3804;50.860;6.208;2023-02-15T12:45:01;22.40;;;12.17;;
7525;SDS011;3804;50.860;6.208;2023-02-15T12:47:29;17.67;;;10.97;;
7525;SDS011;3804;50.860;6.208;2023-02-15T12:52:38;15.37;;;10.90;;
7525;SDS011;3804;50.860;6.208;2023-02-15T12:55:24;19.03;;;12.20;;
7525;SDS011;3804;50.860;6.208;2023-02-15T12:58:05;19.43;;;11.47;;
7525;SDS011;3804;50.860;6.208;2023-02-15T13:00:32;24.00;;;12.30;;
7525;SDS011;3804;50.860;6.208;2023-02-15T13:02:59;21.27;;;12.87;;
7525;SDS011;3804;50.860;6.208;2023-02-15T13:05:36;24.97;;;14.07;;
7525;SDS011;3804;50.860;6.208;2023-02-15T13:08:09;22.77;;;13.63;;
7525;SDS011;3804;50.860;6.208;2023-02-15T13:10:41;21.97;;;12.90;;
7525;SDS011;3804;50.860;6.208;2023-02-15T13:13:16;22.80;;;12.33;;
7525;SDS011;3804;50.860;6.208;2023-02-15T13:15:46;18.67;;;11.43;;
7525;SDS011;3804;50.860;6.208;2023-02-15T13:18:26;20.70;;;12.40;;
7525;SDS011;3804;50.860;6.208;2023-02-15T13:20:56;21.93;;;13.27;;
7525;SDS011;3804;50.860;6.208;2023-02-15T13:23:27;23.53;;;13.07;;
7525;SDS011;3804;50.860;6.208;2023-02-15T13:25:55;19.07;;;12.57;;
7525;SDS011;3804;50.860;6.208;2023-02-15T13:28:31;20.33;;;12.40;;
7525;SDS011;3804;50.860;6.208;2023-02-15T13:30:59;18.60;;;12.83;;
7525;SDS011;3804;50.860;6.208;2023-02-15T13:33:30;22.63;;;12.93;;
7525;SDS011;3804;50.860;6.208;2023-02-15T13:41:07;22.07;;;12.93;;
7525;SDS011;3804;50.860;6.208;2023-02-15T13:48:49;20.63;;;12.50;;
7525;SDS011;3804;50.860;6.208;2023-02-15T13:51:20;20.67;;;12.93;;
7525;SDS011;3804;50.860;6.208;2023-02-15T14:09:23;27.03;;;13.60;;
7525;SDS011;3804;50.860;6.208;2023-02-15T14:11:55;22.67;;;13.03;;
7525;SDS011;3804;50.860;6.208;2023-02-15T14:17:54;22.87;;;12.37;;
7525;SDS011;3804;50.860;6.208;2023-02-15T14:25:39;20.00;;;12.63;;
7525;SDS011;3804;50.860;6.208;2023-02-15T14:28:11;18.37;;;12.70;;
7525;SDS011;3804;50.860;6.208;2023-02-15T14:30:48;22.47;;;12.27;;
7525;SDS011;3804;50.860;6.208;2023-02-15T14:33:31;19.73;;;12.10;;
7525;SDS011;3804;50.860;6.208;2023-02-15T14:36:02;20.97;;;12.43;;
7525;SDS011;3804;50.860;6.208;2023-02-15T14:43:52;20.90;;;12.47;;
7525;SDS011;3804;50.860;6.208;2023-02-15T14:46:36;22.47;;;13.80;;
7525;SDS011;3804;50.860;6.208;2023-02-15T14:49:12;24.23;;;13.80;;
7525;SDS011;3804;50.860;6.208;2023-02-15T14:56:42;25.50;;;14.10;;
7525;SDS011;3804;50.860;6.208;2023-02-15T15:01:40;21.47;;;13.60;;
7525;SDS011;3804;50.860;6.208;2023-02-15T15:04:09;25.80;;;14.23;;
7525;SDS011;3804;50.860;6.208;2023-02-15T15:06:39;25.00;;;13.00;;
7525;SDS011;3804;50.860;6.208;2023-02-15T15:09:11;20.57;;;14.43;;
7525;SDS011;3804;50.860;6.208;2023-02-15T15:11:42;22.80;;;14.07;;
7525;SDS011;3804;50.860;6.208;2023-02-15T15:14:11;22.80;;;14.70;;
7525;SDS011;3804;50.860;6.208;2023-02-15T15:16:56;21.90;;;14.77;;
7525;SDS011;3804;50.860;6.208;2023-02-15T15:19:56;23.53;;;14.13;;
7525;SDS011;3804;50.860;6.208;2023-02-15T15:22:18;25.53;;;15.00;;
7525;SDS011;3804;50.860;6.208;2023-02-15T15:24:46;23.50;;;14.10;;
7525;SDS011;3804;50.860;6.208;2023-02-15T15:29:58;19.73;;;14.33;;
7525;SDS011;3804;50.860;6.208;2023-02-15T15:32:26;18.70;;;13.17;;
7525;SDS011;3804;50.860;6.208;2023-02-15T15:38:10;21.23;;;13.37;;
7525;SDS011;3804;50.860;6.208;2023-02-15T15:40:57;24.67;;;13.57;;
7525;SDS011;3804;50.860;6.208;2023-02-15T15:43:34;21.70;;;13.33;;
7525;SDS011;3804;50.860;6.208;2023-02-15T15:46:13;21.67;;;14.23;;
7525;SDS011;3804;50.860;6.208;2023-02-15T15:48:44;27.00;;;14.70;;
7525;SDS011;3804;50.860;6.208;2023-02-15T15:51:21;27.17;;;14.43;;
7525;SDS011;3804;50.860;6.208;2023-02-15T15:53:52;22.37;;;14.10;;
7525;SDS011;3804;50.860;6.208;2023-02-15T15:56:41;23.57;;;13.70;;
7525;SDS011;3804;50.860;6.208;2023-02-15T15:59:07;21.50;;;13.63;;
7525;SDS011;3804;50.860;6.208;2023-02-15T16:01:39;28.17;;;14.13;;
7525;SDS011;3804;50.860;6.208;2023-02-15T16:04:22;20.37;;;13.00;;
7525;SDS011;3804;50.860;6.208;2023-02-15T16:06:50;22.10;;;14.13;;
7525;SDS011;3804;50.860;6.208;2023-02-15T16:09:18;24.80;;;14.50;;
7525;SDS011;3804;50.860;6.208;2023-02-15T16:11:50;25.33;;;14.33;;
7525;SDS011;3804;50.860;6.208;2023-02-15T16:16:51;25.93;;;14.60;;
7525;SDS011;3804;50.860;6.208;2023-02-15T16:19:20;22.20;;;14.63;;
7525;SDS011;3804;50.860;6.208;2023-02-15T16:21:48;18.90;;;12.10;;
7525;SDS011;3804;50.860;6.208;2023-02-15T16:26:51;26.00;;;13.67;;
7525;SDS011;3804;50.860;6.208;2023-02-15T16:29:26;22.63;;;13.40;;
7525;SDS011;3804;50.860;6.208;2023-02-15T16:32:15;23.73;;;13.63;;
7525;SDS011;3804;50.860;6.208;2023-02-15T16:37:18;26.30;;;14.40;;
7525;SDS011;3804;50.860;6.208;2023-02-15T16:39:49;25.80;;;14.27;;
7525;SDS011;3804;50.860;6.208;2023-02-15T16:42:16;25.57;;;13.67;;
7525;SDS011;3804;50.860;6.208;2023-02-15T16:44:51;27.63;;;14.10;;
7525;SDS011;3804;50.860;6.208;2023-02-15T16:47:23;26.53;;;14.43;;
7525;SDS011;3804;50.860;6.208;2023-02-15T16:49:51;29.60;;;14.83;;
7525;SDS011;3804;50.860;6.208;2023-02-15T16:52:20;27.07;;;15.57;;
7525;SDS011;3804;50.860;6.208;2023-02-15T16:54:49;26.47;;;14.97;;
7525;SDS011;3804;50.860;6.208;2023-02-15T16:57:18;29.60;;;15.33;;
7525;SDS011;3804;50.860;6.208;2023-02-15T16:59:46;27.83;;;15.07;;
7525;SDS011;3804;50.860;6.208;2023-02-15T17:02:24;24.33;;;15.40;;
7525;SDS011;3804;50.860;6.208;2023-02-15T17:10:27;27.97;;;16.40;;
7525;SDS011;3804;50.860;6.208;2023-02-15T17:12:55;29.47;;;17.10;;
7525;SDS011;3804;50.860;6.208;2023-02-15T17:15:24;30.20;;;16.67;;
7525;SDS011;3804;50.860;6.208;2023-02-15T17:17:51;26.53;;;16.83;;
7525;SDS011;3804;50.860;6.208;2023-02-15T17:20:18;35.80;;;18.23;;
7525;SDS011;3804;50.860;6.208;2023-02-15T17:22:45;27.20;;;17.60;;
7525;SDS011;3804;50.860;6.208;2023-02-15T17:25:18;28.83;;;17.90;;
7525;SDS011;3804;50.860;6.208;2023-02-15T17:27:50;36.23;;;22.10;;
7525;SDS011;3804;50.860;6.208;2023-02-15T17:30:20;34.57;;;21.17;;
7525;SDS011;3804;50.860;6.208;2023-02-15T17:32:53;30.93;;;18.90;;
7525;SDS011;3804;50.860;6.208;2023-02-15T17:35:21;33.70;;;19.50;;
7525;SDS011;3804;50.860;6.208;2023-02-15T17:37:49;29.27;;;17.60;;
7525;SDS011;3804;50.860;6.208;2023-02-15T17:40:21;29.63;;;18.17;;
7525;SDS011;3804;50.860;6.208;2023-02-15T17:42:48;30.97;;;18.13;;
7525;SDS011;3804;50.860;6.208;2023-02-15T17:45:15;30.83;;;18.73;;
7525;SDS011;3804;50.860;6.208;2023-02-15T17:47:42;32.13;;;18.80;;
7525;SDS011;3804;50.860;6.208;2023-02-15T17:50:15;32.33;;;19.77;;
7525;SDS011;3804;50.860;6.208;2023-02-15T17:52:42;31.77;;;20.83;;
7525;SDS011;3804;50.860;6.208;2023-02-15T17:55:12;34.63;;;20.83;;
7525;SDS011;3804;50.860;6.208;2023-02-15T17:57:57;31.90;;;19.50;;
7525;SDS011;3804;50.860;6.208;2023-02-15T18:00:24;29.70;;;19.97;;
7525;SDS011;3804;50.860;6.208;2023-02-15T18:03:09;33.70;;;19.90;;
7525;SDS011;3804;50.860;6.208;2023-02-15T18:05:55;33.27;;;21.27;;
7525;SDS011;3804;50.860;6.208;2023-02-15T18:08:42;55.97;;;32.33;;
7525;SDS011;3804;50.860;6.208;2023-02-15T18:11:27;40.07;;;22.57;;
7525;SDS011;3804;50.860;6.208;2023-02-15T18:14:04;37.63;;;22.30;;
7525;SDS011;3804;50.860;6.208;2023-02-15T18:16:34;37.13;;;22.37;;
7525;SDS011;3804;50.860;6.208;2023-02-15T18:19:02;37.17;;;20.93;;
7525;SDS011;3804;50.860;6.208;2023-02-15T18:21:31;37.53;;;22.20;;
7525;SDS011;3804;50.860;6.208;2023-02-15T18:23:58;40.37;;;21.03;;
7525;SDS011;3804;50.860;6.208;2023-02-15T18:26:25;37.53;;;22.63;;
7525;SDS011;3804;50.860;6.208;2023-02-15T18:28:52;33.60;;;20.83;;
7525;SDS011;3804;50.860;6.208;2023-02-15T18:31:19;35.70;;;21.33;;
7525;SDS011;3804;50.860;6.208;2023-02-15T18:33:51;34.50;;;21.20;;
7525;SDS011;3804;50.860;6.208;2023-02-15T18:36:21;34.33;;;20.73;;
7525;SDS011;3804;50.860;6.208;2023-02-15T18:38:51;32.80;;;20.80;;
7525;SDS011;3804;50.860;6.208;2023-02-15T18:41:20;34.80;;;21.00;;
7525;SDS011;3804;50.860;6.208;2023-02-15T18:43:47;35.57;;;20.13;;
7525;SDS011;3804;50.860;6.208;2023-02-15T18:46:14;32.97;;;19.93;;
7525;SDS011;3804;50.860;6.208;2023-02-15T18:48:42;28.73;;;18.33;;
7525;SDS011;3804;50.860;6.208;2023-02-15T18:51:14;31.27;;;18.53;;
7525;SDS011;3804;50.860;6.208;2023-02-15T18:53:43;34.27;;;17.67;;
7525;SDS011;3804;50.860;6.208;2023-02-15T18:56:16;30.17;;;18.97;;
7525;SDS011;3804;50.860;6.208;2023-02-15T18:58:44;27.10;;;17.70;;
7525;SDS011;3804;50.860;6.208;2023-02-15T19:01:13;29.43;;;17.87;;
7525;SDS011;3804;50.860;6.208;2023-02-15T19:03:45;35.13;;;18.20;;
7525;SDS011;3804;50.860;6.208;2023-02-15T19:06:14;33.33;;;17.93;;
7525;SDS011;3804;50.860;6.208;2023-02-15T19:08:42;26.47;;;16.57;;
7525;SDS011;3804;50.860;6.208;2023-02-15T19:11:11;30.83;;;17.07;;
7525;SDS011;3804;50.860;6.208;2023-02-15T19:13:38;32.27;;;17.63;;
7525;SDS011;3804;50.860;6.208;2023-02-15T19:16:05;30.87;;;16.20;;
7525;SDS011;3804;50.860;6.208;2023-02-15T19:18:34;29.03;;;16.37;;
7525;SDS011;3804;50.860;6.208;2023-02-15T19:21:01;26.37;;;15.37;;
7525;SDS011;3804;50.860;6.208;2023-02-15T19:23:27;27.27;;;15.87;;
7525;SDS011;3804;50.860;6.208;2023-02-15T19:25:54;28.43;;;16.30;;
7525;SDS011;3804;50.860;6.208;2023-02-15T19:28:27;28.77;;;16.60;;
7525;SDS011;3804;50.860;6.208;2023-02-15T19:30:55;29.33;;;16.37;;
7525;SDS011;3804;50.860;6.208;2023-02-15T19:33:22;30.10;;;17.40;;
7525;SDS011;3804;50.860;6.208;2023-02-15T19:35:50;30.13;;;16.87;;
7525;SDS011;3804;50.860;6.208;2023-02-15T19:38:24;28.43;;;16.33;;
7525;SDS011;3804;50.860;6.208;2023-02-15T19:40:51;27.17;;;16.37;;
7525;SDS011;3804;50.860;6.208;2023-02-15T19:43:19;28.33;;;16.50;;
7525;SDS011;3804;50.860;6.208;2023-02-15T19:45:51;24.93;;;16.40;;
7525;SDS011;3804;50.860;6.208;2023-02-15T19:48:18;26.03;;;16.10;;
7525;SDS011;3804;50.860;6.208;2023-02-15T19:50:46;26.10;;;16.07;;
7525;SDS011;3804;50.860;6.208;2023-02-15T19:53:23;25.10;;;15.97;;
7525;SDS011;3804;50.860;6.208;2023-02-15T19:55:50;24.63;;;15.67;;
7525;SDS011;3804;50.860;6.208;2023-02-15T19:58:18;26.03;;;17.30;;
7525;SDS011;3804;50.860;6.208;2023-02-15T20:00:48;25.97;;;16.80;;
7525;SDS011;3804;50.860;6.208;2023-02-15T20:03:15;27.97;;;16.53;;
7525;SDS011;3804;50.860;6.208;2023-02-15T20:05:42;27.90;;;16.77;;
7525;SDS011;3804;50.860;6.208;2023-02-15T20:08:13;28.80;;;16.80;;
7525;SDS011;3804;50.860;6.208;2023-02-15T20:10:41;27.90;;;17.23;;
7525;SDS011;3804;50.860;6.208;2023-02-15T20:13:11;29.33;;;17.30;;
7525;SDS011;3804;50.860;6.208;2023-02-15T20:15:38;26.23;;;16.60;;
7525;SDS011;3804;50.860;6.208;2023-02-15T20:18:06;26.60;;;16.37;;
7525;SDS011;3804;50.860;6.208;2023-02-15T20:20:40;26.17;;;16.47;;
7525;SDS011;3804;50.860;6.208;2023-02-15T20:23:13;26.33;;;16.70;;